createdAt,value
2019-05-15T00:01:48.774Z,8.72
2019-05-15T00:04:18.512Z,8.73
2019-05-15T00:06:48.620Z,8.67
2019-05-15T00:09:18.876Z,8.63
2019-05-15T00:11:48.127Z,8.65
2019-05-15T00:14:18.212Z,8.67
2019-05-15T00:16:48.092Z,8.67
2019-05-15T00:19:15.700Z,8.59
2019-05-15T00:21:43.450Z,8.61
2019-05-15T00:24:13.078Z,8.54
2019-05-15T00:26:40.921Z,8.47
2019-05-15T00:29:15.129Z,8.38
2019-05-15T00:31:38.917Z,8.34
2019-05-15T00:34:12.510Z,8.25
2019-05-15T00:36:38.280Z,8.24
2019-05-15T00:39:08.481Z,8.25
2019-05-15T00:41:48.329Z,8.21
2019-05-15T00:44:06.069Z,8.28
2019-05-15T00:46:33.899Z,8.25
2019-05-15T00:49:01.714Z,8.26
2019-05-15T00:51:30.344Z,8.30
2019-05-15T00:53:58.903Z,8.29
2019-05-15T00:56:28.449Z,8.18
2019-05-15T00:58:58.694Z,8.26
2019-05-15T01:01:28.656Z,8.24
2019-05-15T01:03:58.623Z,8.29
2019-05-15T01:06:28.449Z,8.35
2019-05-15T01:08:56.246Z,8.20
2019-05-15T01:11:24.856Z,8.03
2019-05-15T01:13:52.768Z,8.14
2019-05-15T01:16:20.533Z,8.21
2019-05-15T01:18:49.113Z,8.22
2019-05-15T01:21:18.785Z,8.28
2019-05-15T01:23:48.377Z,8.24
2019-05-15T01:26:18.664Z,8.20
2019-05-15T01:28:45.980Z,8.25
2019-05-15T01:31:13.874Z,8.13
2019-05-15T01:33:42.159Z,8.00
2019-05-15T01:36:10.071Z,8.00
2019-05-15T01:38:38.961Z,7.98
2019-05-15T01:41:09.792Z,7.99
2019-05-15T01:43:38.174Z,8.06
2019-05-15T01:46:08.488Z,8.08
2019-05-15T01:48:35.876Z,8.00
2019-05-15T01:51:03.701Z,8.02
2019-05-15T01:53:31.561Z,8.06
2019-05-15T01:55:59.384Z,8.07
2019-05-15T01:58:28.763Z,8.11
2019-05-15T02:00:58.804Z,8.03
2019-05-15T02:03:28.997Z,7.96
2019-05-15T02:05:58.652Z,7.83
2019-05-15T02:08:28.428Z,7.92
2019-05-15T02:10:58.776Z,7.96
2019-05-15T02:13:28.175Z,7.88
2019-05-15T02:15:58.771Z,7.93
2019-05-15T02:18:28.540Z,7.86
2019-05-15T02:20:58.762Z,7.83
2019-05-15T02:23:28.021Z,7.85
2019-05-15T02:25:56.028Z,7.80
2019-05-15T02:28:23.769Z,7.86
2019-05-15T02:30:51.613Z,7.82
2019-05-15T02:33:19.377Z,7.86
2019-05-15T02:35:50.155Z,7.94
2019-05-15T02:38:19.846Z,7.96
2019-05-15T02:40:49.298Z,7.94
2019-05-15T02:43:19.030Z,7.90
2019-05-15T02:45:50.453Z,7.87
2019-05-15T02:48:19.738Z,7.83
2019-05-15T02:50:49.814Z,7.80
2019-05-15T02:53:19.002Z,7.79
2019-05-15T02:55:49.177Z,7.87
2019-05-15T02:58:20.519Z,7.88
2019-05-15T03:00:49.629Z,7.89
2019-05-15T03:03:16.836Z,7.85
2019-05-15T03:05:44.640Z,7.92
2019-05-15T03:08:12.500Z,7.96
2019-05-15T03:10:41.118Z,7.87
2019-05-15T03:13:09.857Z,7.79
2019-05-15T03:15:40.372Z,7.82
2019-05-15T03:18:09.562Z,7.77
2019-05-15T03:20:38.978Z,7.69
2019-05-15T03:23:09.530Z,7.75
2019-05-15T03:25:40.353Z,7.73
2019-05-15T03:28:10.453Z,7.69
2019-05-15T03:31:11.401Z,7.68
2019-05-15T03:33:17.436Z,7.61
2019-05-15T03:35:43.240Z,7.57
2019-05-15T03:38:09.242Z,7.59
2019-05-15T03:40:39.563Z,7.65
2019-05-15T03:43:09.101Z,7.68
2019-05-15T03:45:40.006Z,7.76
2019-05-15T03:48:09.330Z,7.76
2019-05-15T03:50:39.700Z,7.79
2019-05-15T03:53:06.013Z,7.67
2019-05-15T03:55:33.850Z,7.58
2019-05-15T03:58:01.757Z,7.64
2019-05-15T04:00:30.296Z,7.67
2019-05-15T04:02:59.186Z,7.71
2019-05-15T04:05:29.311Z,7.54
2019-05-15T04:07:59.787Z,7.57
2019-05-15T04:10:28.832Z,7.66
2019-05-15T04:12:59.935Z,7.62
2019-05-15T04:15:29.872Z,7.64
2019-05-15T04:18:00.035Z,7.67
2019-05-15T04:20:29.710Z,7.61
2019-05-15T04:23:00.023Z,7.60
2019-05-15T04:25:29.706Z,7.64
2019-05-15T04:28:00.480Z,7.66
2019-05-15T04:30:30.780Z,7.53
2019-05-15T04:32:59.403Z,7.59
2019-05-15T04:35:28.902Z,7.62
2019-05-15T04:37:59.700Z,7.52
2019-05-15T04:40:29.923Z,7.58
2019-05-15T04:42:59.217Z,7.63
2019-05-15T04:45:34.433Z,7.67
2019-05-15T04:47:58.794Z,7.71
2019-05-15T04:50:28.744Z,7.69
2019-05-15T04:52:59.264Z,7.66
2019-05-15T04:55:28.937Z,7.67
2019-05-15T04:57:58.999Z,7.69
2019-05-15T05:00:49.157Z,7.76
2019-05-15T05:03:19.349Z,7.80
2019-05-15T05:05:45.761Z,7.77
2019-05-15T05:08:14.448Z,7.76
2019-05-15T05:10:42.959Z,7.78
2019-05-15T05:13:10.792Z,7.79
2019-05-15T05:15:39.045Z,7.81
2019-05-15T05:18:09.466Z,7.67
2019-05-15T05:20:38.233Z,7.74
2019-05-15T05:23:08.570Z,7.73
2019-05-15T05:25:38.677Z,7.77
2019-05-15T05:28:06.020Z,7.78
2019-05-15T05:30:33.977Z,7.79
2019-05-15T05:33:01.898Z,7.80
2019-05-15T05:35:30.344Z,7.83
2019-05-15T05:37:58.410Z,7.81
2019-05-15T05:40:26.336Z,7.85
2019-05-15T05:42:54.303Z,7.78
2019-05-15T05:45:22.297Z,7.78
2019-05-15T05:47:50.300Z,7.79
2019-05-15T05:50:38.331Z,7.76
2019-05-15T05:53:08.657Z,7.81
2019-05-15T05:55:38.331Z,7.73
2019-05-15T05:58:08.168Z,7.66
2019-05-15T06:00:48.811Z,7.69
2019-05-15T06:03:19.261Z,7.72
2019-05-15T06:05:49.144Z,7.53
2019-05-15T06:08:19.146Z,7.58
2019-05-15T06:10:45.973Z,7.61
2019-05-15T06:13:14.606Z,7.63
2019-05-15T06:15:42.509Z,7.68
2019-05-15T06:18:10.356Z,7.71
2019-05-15T06:20:39.499Z,7.71
2019-05-15T06:23:08.471Z,7.63
2019-05-15T06:25:38.908Z,7.55
2019-05-15T06:28:08.963Z,7.58
2019-05-15T06:30:38.606Z,7.64
2019-05-15T06:33:12.871Z,7.57
2019-05-15T06:35:36.485Z,7.62
2019-05-15T06:38:04.557Z,7.57
2019-05-15T06:40:32.438Z,7.58
2019-05-15T06:43:00.387Z,7.60
2019-05-15T06:45:28.542Z,7.65
2019-05-15T06:47:58.209Z,7.73
2019-05-15T06:50:38.287Z,7.75
2019-05-15T06:53:10.143Z,7.71
2019-05-15T06:55:38.628Z,7.72
2019-05-15T06:58:09.024Z,7.72
2019-05-15T07:00:39.126Z,7.64
2019-05-15T07:03:20.033Z,7.69
2019-05-15T07:05:38.567Z,7.74
2019-05-15T07:08:09.110Z,7.72
2019-05-15T07:10:37.817Z,7.69
2019-05-15T07:13:05.877Z,7.75
2019-05-15T07:15:34.943Z,7.74
2019-05-15T07:18:03.488Z,7.65
2019-05-15T07:20:31.506Z,7.73
2019-05-15T07:22:59.270Z,7.79
2019-05-15T07:25:29.449Z,7.80
2019-05-15T07:27:58.090Z,7.81
2019-05-15T07:30:28.672Z,7.80
2019-05-15T07:32:58.332Z,7.86
2019-05-15T07:35:28.822Z,7.72
2019-05-15T07:37:58.635Z,7.73
2019-05-15T07:40:28.944Z,7.80
2019-05-15T07:42:58.636Z,7.82
2019-05-15T07:45:28.289Z,7.86
2019-05-15T07:47:58.325Z,7.88
2019-05-15T07:50:25.919Z,7.93
2019-05-15T07:52:53.723Z,7.95
2019-05-15T07:55:21.755Z,7.90
2019-05-15T07:57:49.839Z,7.86
2019-05-15T08:00:19.335Z,7.94
2019-05-15T08:02:48.095Z,8.00
2019-05-15T08:05:18.285Z,8.00
2019-05-15T08:07:48.761Z,7.96
2019-05-15T08:10:18.413Z,8.01
2019-05-15T08:12:49.260Z,7.95
2019-05-15T08:15:18.339Z,7.97
2019-05-15T08:18:00.304Z,8.05
2019-05-15T08:20:18.350Z,8.08
2019-05-15T08:22:48.817Z,7.95
2019-05-15T08:25:30.515Z,7.99
2019-05-15T08:27:48.478Z,8.06
2019-05-15T08:30:18.340Z,8.12
2019-05-15T08:32:49.202Z,8.16
2019-05-15T08:35:18.943Z,8.21
2019-05-15T08:37:48.860Z,8.24
2019-05-15T08:40:17.893Z,8.90
2019-05-15T08:42:45.926Z,9.55
2019-05-15T08:45:14.044Z,9.62
2019-05-15T08:47:41.749Z,9.60
2019-05-15T08:50:10.169Z,9.51
2019-05-15T08:52:39.436Z,9.19
2019-05-15T08:55:08.865Z,9.04
2019-05-15T08:57:38.346Z,8.93
2019-05-15T09:00:09.654Z,8.89
2019-05-15T09:02:38.236Z,8.80
2019-05-15T09:05:08.555Z,8.74
2019-05-15T09:07:38.349Z,8.62
2019-05-15T09:10:09.000Z,8.62
2019-05-15T09:12:38.857Z,8.56
2019-05-15T09:15:08.494Z,8.56
2019-05-15T09:17:39.583Z,8.40
2019-05-15T09:20:08.118Z,8.37
2019-05-15T09:22:38.301Z,8.43
2019-05-15T09:25:08.907Z,8.47
2019-05-15T09:27:38.301Z,8.50
2019-05-15T09:30:08.714Z,8.43
2019-05-15T09:32:39.249Z,8.89
2019-05-15T09:35:08.372Z,9.06
2019-05-15T09:37:38.485Z,9.24
2019-05-15T09:40:08.803Z,9.16
2019-05-15T09:42:38.550Z,9.02
2019-05-15T09:45:08.869Z,8.96
2019-05-15T09:47:39.505Z,8.73
2019-05-15T09:50:08.543Z,8.68
2019-05-15T09:52:38.903Z,8.67
2019-05-15T09:55:08.540Z,8.47
2019-05-15T09:57:38.681Z,8.48
2019-05-15T10:00:08.984Z,8.49
2019-05-15T10:02:39.464Z,8.51
2019-05-15T10:05:10.891Z,8.39
2019-05-15T10:07:40.148Z,8.32
2019-05-15T10:10:08.808Z,8.39
2019-05-15T10:12:38.742Z,8.40
2019-05-15T10:15:11.272Z,8.35
2019-05-15T10:17:38.186Z,8.33
2019-05-15T10:20:08.948Z,8.36
2019-05-15T10:22:36.483Z,8.44
2019-05-15T10:25:04.820Z,8.43
2019-05-15T10:27:32.703Z,8.45
2019-05-15T10:30:00.534Z,8.71
2019-05-15T10:32:29.164Z,9.06
2019-05-15T10:34:58.607Z,9.40
2019-05-15T10:37:28.458Z,9.67
2019-05-15T10:39:58.382Z,9.77
2019-05-15T10:42:28.934Z,9.99
2019-05-15T10:44:58.728Z,10.13
2019-05-15T10:47:28.718Z,10.23
2019-05-15T10:49:55.892Z,10.28
2019-05-15T10:52:23.718Z,10.44
2019-05-15T10:54:51.605Z,10.51
2019-05-15T10:57:19.476Z,10.59
2019-05-15T10:59:47.808Z,10.62
2019-05-15T11:02:15.890Z,10.87
2019-05-15T11:04:43.881Z,10.88
2019-05-15T11:07:11.860Z,10.87
2019-05-15T11:09:40.601Z,10.76
2019-05-15T11:12:08.821Z,10.82
2019-05-15T11:14:37.963Z,11.16
2019-05-15T11:17:06.014Z,10.63
2019-05-15T11:19:36.476Z,10.37
2019-05-15T11:22:03.760Z,10.18
2019-05-15T11:24:32.363Z,9.65
2019-05-15T11:27:00.585Z,9.47
2019-05-15T11:29:28.529Z,9.22
2019-05-15T11:31:58.098Z,9.38
2019-05-15T11:34:26.029Z,9.37
2019-05-15T11:36:55.750Z,9.24
2019-05-15T11:39:23.544Z,9.26
2019-05-15T11:41:51.961Z,9.14
2019-05-15T11:44:20.301Z,9.12
2019-05-15T11:46:49.677Z,9.11
2019-05-15T11:49:18.315Z,9.06
2019-05-15T11:51:49.012Z,9.02
2019-05-15T11:54:18.900Z,8.95
2019-05-15T11:56:48.955Z,8.83
2019-05-15T11:59:18.436Z,8.92
2019-05-15T12:01:48.734Z,8.91
2019-05-15T12:04:27.679Z,8.83
2019-05-15T12:06:58.210Z,8.83
2019-05-15T12:09:18.579Z,8.87
2019-05-15T12:11:45.938Z,8.95
2019-05-15T12:14:14.634Z,8.94
2019-05-15T12:16:42.453Z,8.87
2019-05-15T12:19:17.153Z,8.87
2019-05-15T12:21:40.653Z,8.88
2019-05-15T12:24:09.108Z,8.92
2019-05-15T12:26:39.467Z,8.99
2019-05-15T12:29:09.919Z,9.02
2019-05-15T12:31:38.899Z,9.00
2019-05-15T12:34:09.131Z,8.97
2019-05-15T12:36:57.685Z,8.97
2019-05-15T12:39:10.681Z,9.00
2019-05-15T13:01:38.751Z,8.98
2019-05-15T13:04:08.250Z,8.95
2019-05-15T13:06:47.906Z,8.97
2019-05-15T13:09:08.586Z,9.04
2019-05-15T13:11:37.797Z,9.01
2019-05-15T13:14:07.979Z,9.05
2019-05-15T13:16:35.745Z,9.05
2019-05-15T13:19:03.648Z,9.06
2019-05-15T13:21:32.056Z,9.14
2019-05-15T13:24:00.001Z,9.16
2019-05-15T13:26:27.884Z,9.11
2019-05-15T13:28:58.101Z,9.08
2019-05-15T13:31:25.479Z,9.04
2019-05-15T13:33:53.293Z,9.10
2019-05-15T13:36:21.358Z,9.09
2019-05-15T13:38:49.360Z,9.03
2019-05-15T13:41:19.204Z,9.06
2019-05-15T13:43:49.099Z,9.09
2019-05-15T13:46:20.549Z,9.02
2019-05-15T13:48:49.058Z,9.05
2019-05-15T13:51:18.256Z,9.08
2019-05-15T13:53:48.868Z,9.09
2019-05-15T13:56:18.103Z,9.15
2019-05-15T13:58:47.952Z,9.23
2019-05-15T14:01:15.657Z,9.25
2019-05-15T14:03:43.641Z,9.22
2019-05-15T14:06:11.484Z,9.17
2019-05-15T14:08:39.638Z,9.22
2019-05-15T14:11:08.781Z,9.25
2019-05-15T14:13:39.143Z,9.26
2019-05-15T14:16:06.762Z,9.27
2019-05-15T14:18:34.554Z,9.31
2019-05-15T14:21:02.391Z,9.35
2019-05-15T14:23:30.180Z,9.33
2019-05-15T14:25:58.874Z,9.34
2019-05-15T14:28:28.388Z,9.39
2019-05-15T14:30:58.646Z,9.39
2019-05-15T14:33:29.233Z,9.40
2019-05-15T14:35:57.769Z,9.45
2019-05-15T14:38:26.057Z,9.47
2019-05-15T14:40:54.207Z,9.46
2019-05-15T14:43:22.229Z,9.48
2019-05-15T14:45:50.148Z,9.52
2019-05-15T14:48:19.142Z,9.54
2019-05-15T14:50:47.674Z,9.54
2019-05-15T14:53:15.499Z,9.54
2019-05-15T14:55:44.307Z,9.54
2019-05-15T14:58:12.490Z,9.57
2019-05-15T15:00:42.261Z,9.54
2019-05-15T15:03:10.281Z,9.55
2019-05-15T15:05:38.769Z,9.56
2019-05-15T15:08:18.462Z,9.55
2019-05-15T15:10:38.350Z,9.55
2019-05-15T15:13:09.015Z,9.60
2019-05-15T15:15:42.176Z,9.59
2019-05-15T15:18:09.447Z,9.64
2019-05-15T15:20:38.169Z,9.64
2019-05-15T15:23:08.266Z,9.66
2019-05-15T15:25:36.250Z,9.68
2019-05-15T15:28:04.134Z,9.67
2019-05-15T15:30:32.083Z,9.63
2019-05-15T15:33:00.212Z,9.68
2019-05-15T15:35:28.869Z,9.70
2019-05-15T15:37:58.094Z,9.74
2019-05-15T15:40:28.287Z,9.78
2019-05-15T15:42:58.046Z,9.78
2019-05-15T15:45:28.251Z,9.78
2019-05-15T15:47:55.745Z,9.80
2019-05-15T15:50:24.006Z,9.80
2019-05-15T15:52:52.167Z,9.79
2019-05-15T15:55:20.146Z,9.77
2019-05-15T15:57:48.805Z,9.81
2019-05-15T16:00:18.344Z,9.76
2019-05-15T16:02:48.412Z,9.80
2019-05-15T16:05:18.883Z,9.79
2019-05-15T16:07:48.526Z,9.79
2019-05-15T16:10:19.064Z,9.77
2019-05-15T16:12:49.046Z,9.77
2019-05-15T16:15:18.064Z,9.82
2019-05-15T16:17:48.618Z,9.83
2019-05-15T16:20:16.086Z,9.86
2019-05-15T16:22:44.587Z,9.89
2019-05-15T16:25:12.550Z,9.88
2019-05-15T16:27:40.364Z,9.89
2019-05-15T16:30:08.856Z,9.87
2019-05-15T16:32:38.893Z,9.90
2019-05-15T16:35:08.287Z,9.89
2019-05-15T16:37:38.907Z,9.92
2019-05-15T16:40:06.800Z,9.89
2019-05-15T16:42:34.608Z,9.93
2019-05-15T16:45:02.484Z,9.94
2019-05-15T16:47:30.230Z,9.93
2019-05-15T16:49:58.077Z,9.92
2019-05-15T16:52:30.535Z,9.93
2019-05-15T16:54:58.121Z,9.94
2019-05-15T16:57:28.284Z,9.94
2019-05-15T16:59:58.378Z,9.97
2019-05-15T17:02:27.876Z,9.96
2019-05-15T17:04:56.410Z,9.93
2019-05-15T17:07:24.647Z,9.98
2019-05-15T17:09:52.429Z,9.97
2019-05-15T17:12:20.212Z,9.98
2019-05-15T17:14:48.902Z,9.99
2019-05-15T17:17:18.374Z,10.02
2019-05-15T17:19:48.514Z,10.07
2019-05-15T17:22:18.471Z,10.05
2019-05-15T17:24:48.865Z,10.06
2019-05-15T17:27:18.642Z,10.06
2019-05-15T17:29:48.989Z,10.06
2019-05-15T17:32:18.463Z,10.06
2019-05-15T17:34:48.834Z,10.06
2019-05-15T17:37:18.177Z,10.07
2019-05-15T17:39:48.451Z,10.06
2019-05-15T17:42:18.235Z,10.06
2019-05-15T17:44:45.926Z,10.05
2019-05-15T17:47:13.907Z,10.06
2019-05-15T17:49:42.228Z,10.04
2019-05-15T17:52:10.136Z,10.06
2019-05-15T17:54:38.709Z,10.02
2019-05-15T17:57:09.037Z,9.98
2019-05-15T17:59:37.941Z,10.00
2019-05-15T18:02:08.481Z,10.08
2019-05-15T18:04:35.876Z,10.04
2019-05-15T18:07:05.360Z,9.98
2019-05-15T18:09:33.552Z,9.97
2019-05-15T18:12:01.741Z,9.98
2019-05-15T18:14:29.495Z,9.94
2019-05-15T18:16:58.583Z,9.91
2019-05-15T18:19:26.575Z,10.04
2019-05-15T18:21:54.382Z,10.38
2019-05-15T18:24:22.931Z,10.50
2019-05-15T18:26:50.879Z,10.43
2019-05-15T18:29:18.787Z,10.32
2019-05-15T18:31:48.026Z,10.29
2019-05-15T18:34:18.769Z,10.22
2019-05-15T18:36:48.497Z,10.14
2019-05-15T18:39:16.524Z,10.06
2019-05-15T18:41:44.381Z,10.06
2019-05-15T18:44:12.197Z,10.03
2019-05-15T18:46:39.984Z,10.02
2019-05-15T18:49:07.900Z,10.01
2019-05-15T18:51:35.646Z,10.04
2019-05-15T18:54:03.791Z,10.08
2019-05-15T18:56:31.751Z,10.04
2019-05-15T18:59:00.815Z,10.03
2019-05-15T19:01:28.665Z,10.04
2019-05-15T19:03:58.210Z,10.01
2019-05-15T19:06:28.970Z,10.04
2019-05-15T19:08:56.231Z,10.05
2019-05-15T19:11:24.151Z,10.05
2019-05-15T19:13:55.377Z,10.03
2019-05-15T19:16:24.106Z,10.05
2019-05-15T19:18:52.072Z,9.97
2019-05-15T19:21:20.148Z,9.92
2019-05-15T19:23:49.058Z,9.94
2019-05-15T19:26:18.308Z,9.98
2019-05-15T19:28:48.706Z,9.97
2019-05-15T19:31:25.919Z,9.98
2019-05-15T19:33:46.584Z,9.99
2019-05-15T19:36:14.324Z,10.00
2019-05-15T19:38:42.736Z,9.99
2019-05-15T19:41:11.001Z,10.00
2019-05-15T19:43:38.912Z,9.91
2019-05-15T19:46:07.970Z,9.93
2019-05-15T19:48:38.615Z,9.93
2019-05-15T19:51:05.724Z,9.94
2019-05-15T19:53:33.552Z,9.93
2019-05-15T19:56:01.293Z,9.92
2019-05-15T19:58:29.308Z,9.95
2019-05-15T20:00:57.202Z,9.95
2019-05-15T20:03:25.128Z,9.98
2019-05-15T20:05:52.881Z,9.99
2019-05-15T20:08:20.738Z,10.02
2019-05-15T20:10:48.652Z,9.99
2019-05-15T20:13:18.335Z,9.99
2019-05-15T20:15:48.467Z,9.98
2019-05-15T20:18:18.254Z,10.30
2019-05-15T20:20:47.809Z,10.67
2019-05-15T20:23:15.810Z,10.94
2019-05-15T20:25:43.774Z,11.03
2019-05-15T20:28:12.472Z,10.84
2019-05-15T20:30:40.533Z,10.71
2019-05-15T20:33:09.067Z,10.60
2019-05-15T20:35:38.583Z,10.54
2019-05-15T20:38:07.043Z,10.35
2019-05-15T20:40:34.849Z,10.36
2019-05-15T20:43:02.614Z,10.32
2019-05-15T20:45:30.553Z,10.24
2019-05-15T20:47:58.607Z,10.25
2019-05-15T20:50:28.249Z,10.27
2019-05-15T20:52:58.786Z,10.27
2019-05-15T20:55:26.295Z,10.26
2019-05-15T20:57:54.034Z,10.25
2019-05-15T21:00:22.667Z,10.21
2019-05-15T21:02:50.412Z,10.25
2019-05-15T21:05:18.885Z,10.24
2019-05-15T21:07:48.593Z,10.24
2019-05-15T21:10:19.929Z,10.23
2019-05-15T21:12:48.630Z,10.22
2019-05-15T21:15:17.223Z,10.25
2019-05-15T21:17:46.401Z,10.25
2019-05-15T21:20:15.112Z,10.24
2019-05-15T21:22:42.875Z,10.27
2019-05-15T21:25:11.156Z,10.30
2019-05-15T21:27:42.914Z,10.31
2019-05-15T21:30:10.902Z,10.33
2019-05-15T21:32:38.636Z,10.34
2019-05-15T21:35:09.171Z,10.34
2019-05-15T21:37:38.962Z,10.37
2019-05-15T21:40:08.903Z,10.35
2019-05-15T21:42:38.912Z,10.36
2019-05-15T21:45:13.697Z,10.38
2019-05-15T21:47:38.652Z,10.37
2019-05-15T21:50:08.055Z,10.37
2019-05-15T21:52:38.383Z,10.36
2019-05-15T21:55:09.235Z,10.36
2019-05-15T21:57:40.469Z,10.37
2019-05-15T22:00:12.740Z,10.36
2019-05-15T22:02:41.000Z,10.36
2019-05-15T22:05:08.990Z,10.29
2019-05-15T22:07:38.907Z,10.33
2019-05-15T22:10:10.431Z,10.32
2019-05-15T22:12:37.735Z,10.32
2019-05-15T22:15:09.033Z,10.30
2019-05-15T22:17:38.685Z,10.28
2019-05-15T22:20:08.657Z,10.30
2019-05-15T22:22:36.881Z,10.27
2019-05-15T22:25:05.409Z,10.13
2019-05-15T22:27:33.323Z,10.20
2019-05-15T22:30:01.212Z,10.15
2019-05-15T22:32:29.221Z,10.18
2019-05-15T22:35:06.983Z,10.14
2019-05-15T22:37:29.074Z,10.16
2019-05-15T22:39:57.955Z,10.18
2019-05-15T22:42:31.137Z,10.20
2019-05-15T22:44:56.174Z,10.19
2019-05-15T22:47:23.900Z,10.23
2019-05-15T22:49:51.798Z,10.26
2019-05-15T22:52:19.779Z,10.27
2019-05-15T22:54:47.951Z,10.27
2019-05-15T22:57:15.804Z,10.26
2019-05-15T22:59:43.541Z,10.27
2019-05-15T23:02:11.758Z,10.28
2019-05-15T23:04:40.412Z,10.30
2019-05-15T23:07:08.323Z,10.30
2019-05-15T23:09:38.078Z,10.30
2019-05-15T23:12:10.785Z,10.27
2019-05-15T23:14:37.894Z,10.24
2019-05-15T23:17:08.017Z,10.20
2019-05-15T23:19:35.687Z,10.20
2019-05-15T23:22:03.724Z,10.14
2019-05-15T23:24:31.469Z,10.17
2019-05-15T23:26:59.344Z,10.08
2019-05-15T23:29:27.098Z,10.12
2019-05-15T23:31:55.081Z,10.14
2019-05-15T23:34:22.827Z,10.15
2019-05-15T23:36:50.714Z,10.17
2019-05-15T23:39:18.461Z,10.18
2019-05-15T23:41:46.271Z,10.20
2019-05-15T23:44:14.024Z,10.19
2019-05-15T23:46:41.916Z,10.18
2019-05-15T23:49:09.633Z,10.20
2019-05-15T23:51:38.561Z,10.20
2019-05-15T23:54:08.288Z,10.17
2019-05-15T23:56:38.850Z,10.16
2019-05-15T23:59:08.407Z,10.16
